Time;durP1;ratioP1;P1;durP2;ratioP2;P2;SDS_P1;SDS_P2;PMS_P1;PMS_P2;Temp;Humidity;BMP_temperature;BMP_pressure;BME280_temperature;BME280_humidity;BME280_pressure;Samples;Min_cycle;Max_cycle;Signal;HPM_P1;HPM_P2
2022/10/23 00:00:45;;;;;;;35.47;20.95;;;12.80;99.90;;;;;;5053035;28;20202;-76
2022/10/23 00:03:11;;;;;;;43.42;25.52;;;12.80;99.90;;;;;;5055889;28;20230;-76
2022/10/23 00:05:40;;;;;;;44.22;27.10;;;12.80;99.90;;;;;;5063114;28;20202;-75
2022/10/23 00:08:07;;;;;;;36.28;23.63;;;12.70;99.90;;;;;;5063995;28;20286;-74
2022/10/23 00:10:35;;;;;;;32.50;21.80;;;12.70;99.90;;;;;;5067948;28;20239;-76
2022/10/23 00:13:02;;;;;;;26.33;19.42;;;12.60;99.90;;;;;;5063875;28;20290;-76
2022/10/23 00:15:35;;;;;;;40.80;19.10;;;12.60;99.90;;;;;;5058962;28;20200;-75
2022/10/23 00:18:03;;;;;;;24.42;18.67;;;12.60;99.90;;;;;;5053873;28;20306;-75
2022/10/23 00:20:30;;;;;;;26.75;19.05;;;12.60;99.90;;;;;;5054666;28;20200;-75
2022/10/23 00:23:02;;;;;;;27.98;19.13;;;12.70;99.90;;;;;;5051637;28;20200;-75
2022/10/23 00:25:32;;;;;;;24.13;17.15;;;12.50;99.90;;;;;;5069522;28;20214;-75
2022/10/23 00:27:59;;;;;;;40.85;22.55;;;12.50;99.90;;;;;;5059832;28;20694;-75
2022/10/23 00:30:33;;;;;;;39.28;24.15;;;12.50;99.90;;;;;;5051905;28;20251;-75
2022/10/23 00:33:00;;;;;;;41.28;24.90;;;12.50;99.90;;;;;;5054594;28;20235;-75
2022/10/23 00:35:30;;;;;;;27.70;20.85;;;12.50;99.90;;;;;;5059261;28;20258;-77
2022/10/23 00:37:57;;;;;;;41.17;28.30;;;12.40;99.90;;;;;;5052885;28;20231;-74
2022/10/23 00:40:26;;;;;;;38.33;27.52;;;12.30;99.90;;;;;;5044646;28;20202;-76
2022/10/23 00:42:53;;;;;;;33.33;22.73;;;12.40;99.90;;;;;;5052336;28;20235;-76
2022/10/23 00:45:25;;;;;;;38.20;26.10;;;12.20;99.90;;;;;;5052486;28;20285;-76
2022/10/23 00:47:55;;;;;;;29.05;22.08;;;12.30;99.90;;;;;;5039876;28;20309;-74
2022/10/23 00:50:34;;;;;;;31.92;22.00;;;12.30;99.90;;;;;;5053424;28;20241;-76
2022/10/23 00:53:03;;;;;;;44.83;27.35;;;12.20;99.90;;;;;;5056565;28;20207;-76
2022/10/23 00:55:32;;;;;;;56.08;30.35;;;12.20;99.90;;;;;;5055407;28;20202;-75
2022/10/23 00:57:59;;;;;;;44.15;26.17;;;12.20;99.90;;;;;;5053215;28;20266;-75
2022/10/23 01:00:29;;;;;;;61.55;38.38;;;12.30;99.90;;;;;;5051789;28;20210;-76
2022/10/23 01:02:58;;;;;;;48.90;30.95;;;12.30;99.90;;;;;;5048226;28;20714;-76
2022/10/23 01:05:35;;;;;;;66.20;40.40;;;12.40;99.90;;;;;;5047283;28;20675;-76
2022/10/23 01:08:11;;;;;;;42.58;27.30;;;12.30;99.90;;;;;;5044877;28;20227;-75
2022/10/23 01:10:43;;;;;;;26.85;20.50;;;12.30;99.90;;;;;;5052752;28;20246;-75
2022/10/23 01:13:15;;;;;;;35.80;23.63;;;12.20;99.90;;;;;;5053050;28;20293;-75
2022/10/23 01:15:44;;;;;;;38.67;26.08;;;12.20;99.90;;;;;;5052678;28;20688;-76
2022/10/23 01:18:20;;;;;;;46.63;27.80;;;12.20;99.90;;;;;;5046585;28;20262;-76
2022/10/23 01:20:53;;;;;;;41.83;26.48;;;12.10;99.90;;;;;;5050941;28;20276;-75
2022/10/23 01:23:41;;;;;;;47.80;31.75;;;12.10;99.90;;;;;;5051451;28;20206;-75
2022/10/23 01:26:27;;;;;;;42.72;26.92;;;12.10;99.90;;;;;;5053133;28;20344;-74
2022/10/23 01:29:01;;;;;;;42.58;28.38;;;12.10;99.90;;;;;;5045533;28;20306;-75
2022/10/23 01:31:33;;;;;;;51.97;30.13;;;12.10;99.90;;;;;;5050777;28;20219;-75
2022/10/23 01:34:10;;;;;;;38.90;29.38;;;12.20;99.90;;;;;;5052734;28;20204;-75
2022/10/23 01:36:40;;;;;;;52.28;34.83;;;12.10;99.90;;;;;;5045131;28;20546;-74
2022/10/23 01:39:11;;;;;;;35.20;23.92;;;12.10;99.90;;;;;;5048339;28;20254;-74
2022/10/23 01:41:44;;;;;;;39.60;25.50;;;12.20;99.90;;;;;;5046437;28;20512;-76
2022/10/23 01:44:19;;;;;;;37.45;21.65;;;12.20;99.90;;;;;;5051213;28;20289;-75
2022/10/23 01:46:48;;;;;;;28.80;21.20;;;12.20;99.90;;;;;;5048931;28;20294;-74
2022/10/23 01:49:17;;;;;;;35.35;22.50;;;12.20;99.90;;;;;;5045889;28;20224;-74
2022/10/23 01:51:48;;;;;;;32.78;21.10;;;12.20;99.90;;;;;;5052729;28;20200;-74
2022/10/23 01:54:21;;;;;;;45.17;27.65;;;12.20;99.90;;;;;;5042350;28;20286;-75
2022/10/23 01:56:51;;;;;;;46.38;27.55;;;12.20;99.90;;;;;;5050358;28;20241;-74
2022/10/23 01:59:25;;;;;;;35.22;25.05;;;12.10;99.90;;;;;;5046645;28;20230;-74
2022/10/23 02:01:55;;;;;;;43.22;30.20;;;12.10;99.90;;;;;;5047434;28;20201;-75
2022/10/23 02:04:27;;;;;;;73.18;48.45;;;12.10;99.90;;;;;;5052959;28;20302;-75
2022/10/23 02:06:54;;;;;;;54.50;32.88;;;12.20;99.90;;;;;;5053146;28;20191;-75
2022/10/23 02:09:32;;;;;;;54.45;33.67;;;12.10;99.90;;;;;;5053459;28;20247;-75
2022/10/23 02:12:02;;;;;;;44.55;31.10;;;12.20;99.90;;;;;;5042018;28;20197;-75
2022/10/23 02:18:24;;;;;;;52.00;27.48;;;12.20;99.90;;;;;;5045072;28;20205;-75
2022/10/23 02:20:56;;;;;;;52.10;35.63;;;12.00;99.90;;;;;;5060467;28;20186;-76
2022/10/23 02:24:04;;;;;;;72.70;48.75;;;12.00;99.90;;;;;;5064663;28;20284;-76
2022/10/23 02:26:42;;;;;;;34.90;23.17;;;12.00;99.90;;;;;;5062291;28;20237;-75
2022/10/23 02:29:15;;;;;;;26.83;18.60;;;12.00;99.90;;;;;;5050934;28;20225;-75
2022/10/23 02:31:44;;;;;;;32.45;21.67;;;12.00;99.90;;;;;;5055883;28;20214;-76
2022/10/23 02:34:12;;;;;;;29.33;19.73;;;11.90;99.90;;;;;;5056437;28;20298;-76
2022/10/23 02:36:46;;;;;;;29.75;19.83;;;11.90;99.90;;;;;;5066485;28;20244;-75
2022/10/23 02:39:13;;;;;;;30.15;21.90;;;11.90;99.90;;;;;;5062166;28;20336;-75
2022/10/23 02:41:53;;;;;;;39.80;24.35;;;11.90;99.90;;;;;;5065153;28;20238;-76
2022/10/23 02:44:37;;;;;;;32.88;23.30;;;11.90;99.90;;;;;;5052762;28;20312;-74
2022/10/23 02:47:18;;;;;;;40.95;22.80;;;11.90;99.90;;;;;;5060237;28;20211;-75
2022/10/23 02:50:05;;;;;;;42.53;23.25;;;11.90;99.90;;;;;;5053474;28;20231;-75
2022/10/23 02:55:37;;;;;;;29.58;19.05;;;11.80;99.90;;;;;;5060206;28;20268;-75
2022/10/23 02:58:22;;;;;;;31.55;20.75;;;11.80;99.90;;;;;;5064203;28;20222;-74
2022/10/23 03:00:52;;;;;;;26.30;18.92;;;11.80;99.90;;;;;;5065409;28;20202;-73
2022/10/23 03:03:30;;;;;;;39.05;21.35;;;11.80;99.90;;;;;;5058105;28;20229;-74
2022/10/23 03:05:58;;;;;;;36.40;22.10;;;11.80;99.90;;;;;;5052313;28;20294;-74
2022/10/23 03:08:25;;;;;;;27.48;18.85;;;11.80;99.90;;;;;;5054932;28;20770;-74
2022/10/23 03:10:52;;;;;;;41.47;24.63;;;11.80;99.90;;;;;;5054612;28;20304;-74
2022/10/23 03:13:19;;;;;;;41.90;26.20;;;11.70;99.90;;;;;;5056271;28;20637;-75
2022/10/23 03:15:46;;;;;;;39.45;26.30;;;11.60;99.90;;;;;;5049876;28;20289;-76
2022/10/23 03:18:13;;;;;;;37.08;24.50;;;11.60;99.90;;;;;;5050439;28;20297;-74
2022/10/23 03:20:40;;;;;;;43.35;23.10;;;11.50;99.90;;;;;;5050048;28;20202;-73
2022/10/23 03:23:12;;;;;;;35.30;22.98;;;11.50;99.90;;;;;;5055564;28;20296;-76
2022/10/23 03:25:40;;;;;;;32.10;21.55;;;11.50;99.90;;;;;;5050768;28;20302;-74
2022/10/23 03:28:07;;;;;;;30.80;23.35;;;11.40;99.90;;;;;;5054253;28;20236;-75
2022/10/23 03:30:34;;;;;;;25.83;17.33;;;11.50;99.90;;;;;;5054070;28;20774;-75
2022/10/23 03:33:01;;;;;;;27.40;19.75;;;11.50;99.90;;;;;;5053537;28;20275;-76
2022/10/23 03:35:28;;;;;;;31.25;21.00;;;11.60;99.90;;;;;;5051786;28;20292;-75
2022/10/23 03:37:55;;;;;;;19.92;16.65;;;11.70;99.90;;;;;;5055426;28;20307;-76
2022/10/23 03:40:23;;;;;;;26.88;18.77;;;11.60;99.90;;;;;;5051418;28;20194;-75
2022/10/23 03:42:50;;;;;;;22.20;18.42;;;11.60;99.90;;;;;;5047768;28;20225;-75
2022/10/23 03:45:17;;;;;;;24.88;19.50;;;11.60;99.90;;;;;;5049151;28;20627;-75
2022/10/23 03:47:44;;;;;;;24.70;18.27;;;11.70;99.90;;;;;;5053806;28;20223;-75
2022/10/23 03:50:12;;;;;;;28.98;20.73;;;11.70;99.90;;;;;;5047311;28;21391;-74
2022/10/23 03:52:40;;;;;;;35.28;21.17;;;11.70;99.90;;;;;;5052681;28;20252;-74
2022/10/23 03:55:08;;;;;;;23.70;17.95;;;11.60;99.90;;;;;;5054310;28;20669;-74
2022/10/23 03:57:36;;;;;;;21.83;16.95;;;11.60;99.90;;;;;;5052917;28;20641;-75
2022/10/23 04:00:06;;;;;;;26.83;19.92;;;11.60;99.90;;;;;;5042749;28;20294;-74
2022/10/23 04:02:33;;;;;;;25.50;18.83;;;11.60;99.90;;;;;;5058134;28;20305;-74
2022/10/23 04:05:22;;;;;;;23.92;18.00;;;11.70;99.90;;;;;;5083243;28;20222;-74
2022/10/23 04:07:49;;;;;;;25.27;18.38;;;11.70;99.90;;;;;;5062131;28;20681;-75
2022/10/23 04:10:17;;;;;;;31.50;21.27;;;11.60;99.90;;;;;;5061777;28;20242;-73
2022/10/23 04:12:46;;;;;;;25.58;19.73;;;11.60;99.90;;;;;;5056413;28;20259;-74
2022/10/23 04:15:13;;;;;;;23.20;19.15;;;11.60;99.90;;;;;;5055360;28;20684;-74
2022/10/23 04:17:40;;;;;;;28.02;21.30;;;11.50;99.90;;;;;;5056429;28;20275;-74
2022/10/23 04:20:07;;;;;;;30.60;22.60;;;11.50;99.90;;;;;;5047987;28;20198;-75
2022/10/23 04:22:34;;;;;;;26.48;19.80;;;11.50;99.90;;;;;;5057937;28;20206;-77
2022/10/23 04:25:01;;;;;;;34.53;22.17;;;11.50;99.90;;;;;;5060870;28;20232;-76
2022/10/23 04:27:27;;;;;;;28.52;18.73;;;11.50;99.90;;;;;;5055983;28;20548;-76
2022/10/23 04:29:56;;;;;;;21.08;17.13;;;11.50;99.90;;;;;;5053337;28;20204;-77
2022/10/23 04:32:23;;;;;;;19.42;16.85;;;11.50;99.90;;;;;;5053438;28;20245;-76
2022/10/23 04:34:50;;;;;;;16.85;15.15;;;11.60;99.90;;;;;;5052686;28;20257;-76
2022/10/23 04:37:17;;;;;;;23.48;17.50;;;11.60;99.90;;;;;;5053160;28;20217;-76
2022/10/23 04:39:44;;;;;;;33.42;17.30;;;11.70;99.90;;;;;;5051641;28;20290;-76
2022/10/23 04:42:10;;;;;;;23.67;17.50;;;11.70;99.90;;;;;;5053148;28;20234;-76
2022/10/23 04:44:37;;;;;;;20.40;17.23;;;11.70;99.90;;;;;;5052684;28;20262;-76
2022/10/23 04:47:06;;;;;;;28.02;18.00;;;11.70;99.90;;;;;;5046968;28;20236;-76
2022/10/23 04:49:32;;;;;;;21.63;16.75;;;11.60;99.90;;;;;;5052755;28;20244;-76
2022/10/23 04:51:59;;;;;;;23.67;17.67;;;11.60;99.90;;;;;;5052916;28;20230;-76
2022/10/23 04:54:26;;;;;;;17.85;14.40;;;11.60;99.90;;;;;;5051061;28;20202;-76
2022/10/23 04:56:53;;;;;;;20.50;15.30;;;11.60;99.90;;;;;;5052364;28;20217;-76
2022/10/23 04:59:21;;;;;;;20.77;14.30;;;11.60;99.90;;;;;;5053404;28;20235;-75
2022/10/23 05:01:48;;;;;;;23.20;15.07;;;11.70;99.90;;;;;;5047256;28;20221;-75
2022/10/23 05:04:17;;;;;;;22.95;15.50;;;11.60;99.90;;;;;;5052048;28;20209;-75
2022/10/23 05:06:43;;;;;;;22.25;16.17;;;11.60;99.90;;;;;;5053150;28;20292;-74
2022/10/23 05:09:10;;;;;;;19.23;15.60;;;11.60;99.90;;;;;;5052365;28;20306;-75
2022/10/23 05:11:37;;;;;;;24.48;16.60;;;11.60;99.90;;;;;;5051103;28;20305;-76
2022/10/23 05:14:04;;;;;;;21.58;15.63;;;11.60;99.90;;;;;;5052657;28;20199;-74
2022/10/23 05:16:38;;;;;;;21.48;15.80;;;11.60;99.90;;;;;;5052308;28;20208;-75
2022/10/23 05:19:07;;;;;;;23.80;17.25;;;11.60;99.90;;;;;;5050650;28;20313;-74
2022/10/23 05:21:36;;;;;;;23.80;15.80;;;11.40;99.90;;;;;;5049921;28;20635;-74
2022/10/23 05:24:04;;;;;;;23.02;17.25;;;11.40;99.90;;;;;;5052209;28;20232;-76
2022/10/23 05:26:32;;;;;;;30.27;18.48;;;11.40;99.90;;;;;;5051867;28;20214;-74
2022/10/23 05:28:59;;;;;;;21.60;14.77;;;11.30;99.90;;;;;;5051882;28;20313;-74
2022/10/23 05:31:26;;;;;;;29.80;16.90;;;11.30;99.90;;;;;;5053482;28;20221;-75
2022/10/23 05:33:55;;;;;;;25.13;18.70;;;11.30;99.90;;;;;;5053690;28;20202;-76
2022/10/23 05:36:22;;;;;;;28.38;18.38;;;11.30;99.90;;;;;;5051842;28;20292;-74
2022/10/23 05:38:51;;;;;;;24.98;16.60;;;11.20;99.90;;;;;;5051616;28;20226;-74
2022/10/23 05:41:18;;;;;;;27.27;15.80;;;11.20;99.90;;;;;;5053995;28;20253;-74
2022/10/23 05:43:45;;;;;;;24.75;18.08;;;11.20;99.90;;;;;;5057558;28;20206;-74
2022/10/23 05:46:12;;;;;;;20.80;15.77;;;11.10;99.90;;;;;;5065955;28;20206;-74
2022/10/23 05:48:40;;;;;;;29.70;15.35;;;11.20;99.90;;;;;;5068659;28;20234;-74
2022/10/23 05:51:09;;;;;;;19.23;15.60;;;11.20;99.90;;;;;;5061319;28;20227;-75
2022/10/23 05:53:37;;;;;;;26.65;16.08;;;11.20;99.90;;;;;;5074263;28;20235;-74
2022/10/23 05:56:07;;;;;;;25.83;16.10;;;11.20;99.90;;;;;;5068393;28;20291;-75
2022/10/23 05:58:34;;;;;;;24.77;15.07;;;11.10;99.90;;;;;;5063384;28;20790;-76
2022/10/23 06:01:05;;;;;;;20.70;14.27;;;11.20;99.90;;;;;;5066124;28;20622;-75
2022/10/23 06:03:32;;;;;;;17.80;12.63;;;11.30;99.90;;;;;;5055540;28;20206;-75
2022/10/23 06:05:59;;;;;;;18.05;13.55;;;11.30;99.90;;;;;;5056480;28;20225;-75
2022/10/23 06:08:26;;;;;;;17.02;12.73;;;11.30;99.90;;;;;;5054690;28;20563;-76
2022/10/23 06:10:54;;;;;;;15.27;11.77;;;11.30;99.90;;;;;;5054089;28;20318;-74
2022/10/23 06:13:22;;;;;;;15.23;12.25;;;11.30;99.90;;;;;;5055761;28;20207;-74
2022/10/23 06:15:49;;;;;;;13.88;10.52;;;11.30;99.90;;;;;;5049425;28;20237;-75
2022/10/23 06:18:16;;;;;;;18.98;11.45;;;11.20;99.90;;;;;;5046563;28;20310;-75
2022/10/23 06:20:43;;;;;;;15.00;11.00;;;11.30;99.90;;;;;;5055655;28;20297;-75
2022/10/23 06:23:10;;;;;;;15.27;11.15;;;11.30;99.90;;;;;;5057925;28;20201;-75
2022/10/23 06:25:37;;;;;;;13.02;10.85;;;11.40;99.90;;;;;;5057040;28;20252;-75
2022/10/23 06:28:04;;;;;;;18.25;12.15;;;11.40;99.90;;;;;;5055601;28;20658;-75
2022/10/23 06:30:33;;;;;;;16.35;11.50;;;11.40;99.90;;;;;;5055664;28;20675;-76
2022/10/23 06:33:00;;;;;;;18.02;13.95;;;11.50;99.90;;;;;;5056517;28;20400;-75
2022/10/23 06:35:27;;;;;;;18.63;11.73;;;11.50;99.90;;;;;;5052871;28;20253;-76
2022/10/23 06:37:54;;;;;;;20.02;12.70;;;11.50;99.90;;;;;;5055429;28;20633;-76
2022/10/23 06:40:20;;;;;;;14.27;11.70;;;11.60;99.90;;;;;;5056412;28;20207;-76
2022/10/23 06:42:48;;;;;;;12.98;11.18;;;11.60;99.90;;;;;;5051822;28;20231;-75
2022/10/23 06:45:15;;;;;;;15.50;10.90;;;11.60;99.90;;;;;;5056621;28;20658;-76
2022/10/23 06:47:44;;;;;;;13.80;11.00;;;11.60;99.90;;;;;;5056217;28;20234;-75
2022/10/23 06:50:11;;;;;;;14.65;10.57;;;11.70;99.90;;;;;;5052020;28;20221;-75
2022/10/23 06:52:38;;;;;;;17.50;11.60;;;11.80;99.90;;;;;;5054691;28;20248;-76
2022/10/23 06:55:05;;;;;;;19.67;10.93;;;11.90;99.90;;;;;;5053705;28;20626;-76
2022/10/23 06:57:33;;;;;;;20.88;11.55;;;12.00;99.90;;;;;;5050570;28;20313;-74
2022/10/23 07:00:04;;;;;;;12.80;10.63;;;11.90;99.90;;;;;;5055550;28;20207;-76
2022/10/23 07:02:31;;;;;;;11.25;9.10;;;11.90;99.90;;;;;;5052495;28;20582;-73
2022/10/23 07:04:59;;;;;;;14.32;9.68;;;12.00;99.90;;;;;;5055742;28;20775;-75
2022/10/23 07:07:26;;;;;;;14.50;9.02;;;12.10;99.90;;;;;;5051429;28;20207;-77
2022/10/23 07:09:54;;;;;;;11.77;8.80;;;12.20;99.90;;;;;;5051821;28;20285;-77
2022/10/23 07:12:21;;;;;;;11.15;8.82;;;12.20;99.90;;;;;;5054084;28;20305;-75
2022/10/23 07:14:48;;;;;;;11.40;7.63;;;12.40;99.90;;;;;;5051526;28;20281;-77
2022/10/23 07:17:15;;;;;;;9.70;8.15;;;12.60;99.90;;;;;;5056068;28;20206;-76
2022/10/23 07:19:42;;;;;;;10.43;8.90;;;12.90;99.90;;;;;;5050653;28;20286;-74
2022/10/23 07:22:10;;;;;;;15.85;7.97;;;13.20;99.90;;;;;;5052626;28;20585;-75
2022/10/23 07:24:38;;;;;;;9.88;8.98;;;13.40;99.90;;;;;;5050496;28;20283;-76
2022/10/23 07:27:06;;;;;;;10.13;8.02;;;13.60;99.90;;;;;;5047250;28;20219;-76
2022/10/23 07:29:33;;;;;;;17.50;8.48;;;13.80;99.90;;;;;;5058840;28;20223;-77
2022/10/23 07:32:00;;;;;;;8.15;7.20;;;14.00;99.90;;;;;;5050597;28;20245;-77
2022/10/23 07:34:27;;;;;;;7.50;6.78;;;14.30;99.90;;;;;;5055236;28;20196;-78
2022/10/23 07:36:55;;;;;;;10.07;7.95;;;14.40;99.90;;;;;;5053643;28;20472;-75
2022/10/23 07:39:24;;;;;;;13.73;7.00;;;14.40;99.90;;;;;;5047909;28;20227;-75
2022/10/23 07:41:52;;;;;;;9.75;6.57;;;14.50;99.90;;;;;;5053207;28;20730;-74
2022/10/23 07:44:19;;;;;;;11.13;9.52;;;14.60;99.90;;;;;;5060984;28;20199;-75
2022/10/23 07:46:46;;;;;;;9.32;7.50;;;14.60;99.90;;;;;;5058439;28;20222;-77
2022/10/23 07:49:13;;;;;;;8.82;6.60;;;14.50;99.90;;;;;;5055716;28;20217;-76
2022/10/23 07:51:40;;;;;;;11.63;7.32;;;14.50;99.90;;;;;;5058531;28;20270;-76
2022/10/23 07:54:08;;;;;;;8.90;6.13;;;14.50;99.90;;;;;;5050180;28;20235;-77
2022/10/23 07:56:37;;;;;;;8.50;7.45;;;14.50;99.90;;;;;;5059454;28;20205;-79
2022/10/23 07:59:07;;;;;;;10.25;7.03;;;14.50;99.90;;;;;;5058456;28;20267;-79
2022/10/23 08:01:38;;;;;;;10.40;6.72;;;14.50;99.90;;;;;;5051573;28;20207;-77
2022/10/23 08:04:07;;;;;;;10.48;7.55;;;14.50;99.90;;;;;;5054491;28;20203;-79
2022/10/23 08:06:42;;;;;;;9.85;7.22;;;14.50;99.90;;;;;;5059361;28;20210;-75
2022/10/23 08:09:15;;;;;;;11.70;7.72;;;14.30;99.90;;;;;;5070204;28;20240;-78
2022/10/23 08:12:09;;;;;;;8.18;7.35;;;14.40;99.90;;;;;;5055642;28;20285;-77
2022/10/23 08:14:36;;;;;;;8.40;5.95;;;14.30;99.90;;;;;;5048928;28;20203;-80
2022/10/23 08:17:04;;;;;;;7.53;5.93;;;14.20;99.90;;;;;;5051215;28;20197;-76
2022/10/23 08:19:31;;;;;;;8.65;6.75;;;14.30;99.90;;;;;;5057568;28;20314;-74
2022/10/23 08:21:58;;;;;;;9.38;7.20;;;14.40;99.90;;;;;;5047757;28;20299;-79
2022/10/23 08:24:25;;;;;;;9.27;7.10;;;14.40;99.90;;;;;;5056422;28;20312;-76
2022/10/23 08:26:52;;;;;;;10.07;7.88;;;14.30;99.90;;;;;;5052513;28;20214;-75
2022/10/23 08:29:21;;;;;;;7.20;6.03;;;14.30;99.90;;;;;;5052718;28;20315;-77
2022/10/23 08:31:48;;;;;;;11.18;6.75;;;14.40;99.90;;;;;;5061929;28;20223;-77
2022/10/23 08:34:17;;;;;;;10.95;6.00;;;14.30;99.90;;;;;;5066630;28;20211;-73
2022/10/23 08:36:44;;;;;;;8.32;6.35;;;14.60;99.90;;;;;;5058302;28;20216;-75
2022/10/23 08:39:18;;;;;;;6.93;6.25;;;14.50;99.90;;;;;;5058824;28;20224;-78
2022/10/23 08:41:49;;;;;;;7.78;5.60;;;14.60;99.90;;;;;;5040557;28;20250;-77
2022/10/23 08:44:25;;;;;;;10.82;6.18;;;14.60;99.90;;;;;;5033890;28;20294;-76
2022/10/23 08:47:04;;;;;;;8.38;6.57;;;14.70;99.90;;;;;;5029566;28;20226;-77
2022/10/23 08:49:39;;;;;;;12.68;5.43;;;14.60;99.90;;;;;;5029304;28;20315;-77
2022/10/23 08:52:15;;;;;;;8.65;6.80;;;14.60;99.90;;;;;;5028054;28;21287;-78
2022/10/23 08:54:51;;;;;;;9.60;6.38;;;14.60;99.90;;;;;;5029472;28;20863;-77
2022/10/23 08:57:22;;;;;;;11.82;6.55;;;14.60;99.90;;;;;;5028528;28;20212;-76
2022/10/23 08:59:56;;;;;;;8.00;5.90;;;14.70;99.90;;;;;;5027535;28;21449;-78
2022/10/23 09:02:26;;;;;;;11.63;5.53;;;14.70;99.90;;;;;;5027890;28;20207;-79
2022/10/23 09:04:55;;;;;;;13.35;9.50;;;14.80;99.90;;;;;;5029920;28;20918;-79
2022/10/23 09:07:35;;;;;;;10.30;6.38;;;14.80;99.90;;;;;;5028284;28;20307;-77
2022/10/23 09:10:18;;;;;;;11.95;6.50;;;14.90;99.90;;;;;;5026409;28;20338;-79
2022/10/23 09:12:46;;;;;;;7.70;6.45;;;15.10;99.90;;;;;;5029089;28;20594;-78
2022/10/23 09:15:24;;;;;;;9.40;7.05;;;15.20;99.90;;;;;;5029985;28;20262;-75
2022/10/23 09:17:57;;;;;;;9.82;7.00;;;15.30;99.90;;;;;;5030563;28;20675;-78
2022/10/23 09:20:26;;;;;;;10.30;7.32;;;15.30;99.90;;;;;;5027745;28;20227;-76
2022/10/23 09:22:55;;;;;;;10.45;7.85;;;15.20;99.90;;;;;;5026887;28;20211;-75
2022/10/23 09:25:25;;;;;;;8.50;6.95;;;15.30;99.90;;;;;;5029429;28;20225;-75
2022/10/23 09:27:55;;;;;;;5.97;5.40;;;15.30;99.90;;;;;;5035159;28;20226;-79
2022/10/23 09:30:29;;;;;;;6.40;5.38;;;15.40;99.90;;;;;;5039757;28;20209;-77
2022/10/23 09:32:56;;;;;;;8.53;6.57;;;15.50;99.90;;;;;;5052580;28;20270;-76
2022/10/23 09:35:30;;;;;;;8.90;6.60;;;15.50;99.90;;;;;;5044692;28;20845;-77
2022/10/23 09:37:57;;;;;;;9.80;5.90;;;15.70;99.90;;;;;;5038563;28;20486;-76
2022/10/23 09:40:33;;;;;;;9.60;5.50;;;15.90;99.90;;;;;;5038507;28;20458;-76
2022/10/23 09:43:03;;;;;;;9.03;5.10;;;16.10;99.90;;;;;;5040307;28;20454;-79
2022/10/23 09:45:33;;;;;;;18.88;5.95;;;16.30;99.90;;;;;;5034810;28;20867;-79
2022/10/23 09:48:05;;;;;;;12.53;5.03;;;16.40;99.90;;;;;;5036212;28;20322;-71
2022/10/23 09:50:32;;;;;;;8.13;4.83;;;16.50;99.90;;;;;;5033227;28;20960;-76
2022/10/23 09:52:59;;;;;;;7.00;5.50;;;16.70;99.90;;;;;;5033935;28;20492;-77
2022/10/23 09:55:28;;;;;;;9.30;5.77;;;17.10;99.90;;;;;;5034241;28;20462;-76
2022/10/23 09:57:55;;;;;;;15.70;6.30;;;17.40;99.90;;;;;;5030648;28;20476;-78
2022/10/23 10:00:25;;;;;;;7.83;5.50;;;17.70;99.90;;;;;;5032845;28;21134;-78
2022/10/23 10:02:59;;;;;;;9.30;5.23;;;18.10;99.90;;;;;;5034672;28;20455;-79
2022/10/23 10:05:28;;;;;;;5.87;4.17;;;18.50;99.90;;;;;;5030432;28;20464;-77
2022/10/23 10:07:58;;;;;;;10.53;5.00;;;18.80;99.90;;;;;;5033065;28;20477;-76
2022/10/23 10:10:29;;;;;;;8.27;4.50;;;19.00;99.90;;;;;;5032510;28;20452;-77
2022/10/23 10:13:01;;;;;;;8.80;4.87;;;19.20;99.90;;;;;;5032219;28;20488;-81
2022/10/23 10:15:33;;;;;;;5.23;4.20;;;19.30;99.90;;;;;;5032863;28;20446;-78
2022/10/23 10:18:13;;;;;;;11.50;4.67;;;19.30;99.90;;;;;;5032560;28;20478;-79
2022/10/23 10:20:50;;;;;;;15.07;5.83;;;19.00;99.90;;;;;;5029142;28;20835;-79
2022/10/23 10:23:27;;;;;;;7.67;5.13;;;18.90;99.90;;;;;;5031134;28;20521;-75
2022/10/23 10:26:01;;;;;;;7.23;4.57;;;18.60;99.90;;;;;;5029709;28;20548;-76
2022/10/23 10:28:40;;;;;;;6.20;5.60;;;18.40;99.90;;;;;;5031189;28;20846;-79
2022/10/23 10:31:16;;;;;;;8.60;6.17;;;18.20;99.90;;;;;;5029248;28;20512;-80
2022/10/23 10:33:54;;;;;;;11.73;6.10;;;18.10;99.90;;;;;;5032949;28;20595;-78
2022/10/23 10:36:40;;;;;;;13.03;5.47;;;18.10;99.90;;;;;;5027393;28;20486;-78
2022/10/23 10:39:18;;;;;;;8.43;5.40;;;18.00;99.90;;;;;;5027250;28;20552;-76
2022/10/23 10:41:55;;;;;;;9.30;5.77;;;17.70;99.90;;;;;;4998431;22;20533;-80
2022/10/23 10:44:42;;;;;;;9.30;5.30;;;17.60;99.90;;;;;;5044804;28;20533;-82
2022/10/23 10:47:14;;;;;;;10.30;5.10;;;17.50;99.90;;;;;;5051063;28;21198;-80
2022/10/23 10:49:52;;;;;;;9.03;5.53;;;17.50;99.90;;;;;;5053048;28;20514;-79
2022/10/23 10:52:26;;;;;;;8.37;5.80;;;17.50;99.90;;;;;;5052330;28;20619;-82
2022/10/23 10:54:58;;;;;;;10.17;5.23;;;17.40;99.90;;;;;;5053193;28;20467;-81
2022/10/23 10:57:31;;;;;;;8.53;5.63;;;17.50;99.90;;;;;;5055959;28;20430;-82
2022/10/23 11:00:05;;;;;;;8.20;5.47;;;17.60;99.90;;;;;;5052844;28;20468;-80
2022/10/23 11:02:40;;;;;;;11.43;5.57;;;17.60;99.90;;;;;;5057247;28;20473;-82
2022/10/23 11:05:29;;;;;;;6.70;6.07;;;17.60;99.90;;;;;;5059209;28;20445;-82
2022/10/23 11:07:59;;;;;;;10.00;5.57;;;17.60;99.90;;;;;;5060137;28;20534;-80
2022/10/23 11:10:27;;;;;;;6.33;4.93;;;17.70;99.90;;;;;;5059158;28;20519;-80
2022/10/23 11:12:54;;;;;;;5.93;5.13;;;17.70;99.90;;;;;;5061230;28;20864;-84
2022/10/23 11:15:28;;;;;;;6.67;5.80;;;17.70;99.90;;;;;;5061147;28;20542;-80
2022/10/23 11:18:00;;;;;;;5.93;4.93;;;17.70;99.90;;;;;;5061532;28;20468;-77
2022/10/23 11:20:49;;;;;;;8.30;5.20;;;17.70;99.90;;;;;;5062123;28;21256;-79
2022/10/23 11:23:37;;;;;;;9.03;5.90;;;17.70;99.90;;;;;;5057998;28;20454;-80
2022/10/23 11:26:19;;;;;;;7.00;5.13;;;17.70;99.90;;;;;;5047816;28;20454;-84
2022/10/23 11:29:20;;;;;;;8.90;6.13;;;17.70;99.90;;;;;;5057573;28;20443;-83
2022/10/23 11:32:03;;;;;;;10.27;5.50;;;17.60;99.90;;;;;;5066615;28;20514;-85
2022/10/23 11:34:46;;;;;;;8.67;5.93;;;17.40;99.90;;;;;;5068289;28;20470;-82
2022/10/23 11:37:18;;;;;;;7.63;6.30;;;17.60;99.90;;;;;;5062804;28;20471;-82
2022/10/23 11:40:01;;;;;;;7.37;6.40;;;17.50;99.90;;;;;;5054434;28;20501;-84
2022/10/23 11:42:32;;;;;;;9.67;6.90;;;17.50;99.90;;;;;;5060773;28;20459;-80
2022/10/23 11:44:59;;;;;;;8.30;5.50;;;17.50;99.90;;;;;;5062252;28;20534;-81
2022/10/23 11:47:31;;;;;;;7.47;5.13;;;17.50;99.90;;;;;;5069539;28;20451;-82
2022/10/23 11:50:24;;;;;;;9.33;5.77;;;17.60;99.90;;;;;;5063237;28;20443;-82
2022/10/23 11:53:25;;;;;;;6.30;5.50;;;17.60;99.90;;;;;;5070832;28;20470;-81
2022/10/23 11:56:05;;;;;;;9.23;5.97;;;17.70;99.90;;;;;;5065999;28;20465;-83
2022/10/23 11:58:43;;;;;;;12.13;5.67;;;17.70;99.90;;;;;;5073200;28;20472;-82
2022/10/23 12:01:28;;;;;;;13.43;5.13;;;17.70;99.90;;;;;;5067705;28;20466;-82
2022/10/23 12:03:58;;;;;;;12.17;5.93;;;17.90;99.90;;;;;;5070539;28;20453;-82
2022/10/23 12:06:28;;;;;;;9.47;5.93;;;17.90;99.90;;;;;;5076067;28;20460;-82
2022/10/23 12:09:01;;;;;;;6.00;4.10;;;17.90;99.90;;;;;;5070001;28;20470;-82
2022/10/23 12:11:40;;;;;;;9.30;6.23;;;17.80;99.90;;;;;;5064252;28;20458;-84
2022/10/23 12:14:26;;;;;;;12.37;5.80;;;17.70;99.90;;;;;;5063234;28;20466;-83
2022/10/23 12:16:53;;;;;;;9.50;6.20;;;17.60;99.90;;;;;;5065202;28;20438;-84
2022/10/23 12:19:22;;;;;;;8.40;6.03;;;17.60;99.90;;;;;;5069928;28;20457;-83
2022/10/23 12:21:51;;;;;;;9.63;5.30;;;17.60;99.90;;;;;;5061195;28;20485;-79
2022/10/23 12:24:45;;;;;;;21.83;5.20;;;17.70;99.90;;;;;;5063310;28;20476;-81
2022/10/23 12:27:22;;;;;;;7.13;5.43;;;17.80;99.90;;;;;;5052573;28;20461;-81
2022/10/23 12:30:01;;;;;;;7.00;5.33;;;18.00;99.90;;;;;;5072807;28;20523;-81
2022/10/23 12:32:41;;;;;;;13.53;4.50;;;18.20;99.90;;;;;;5075300;28;20490;-81
2022/10/23 12:35:27;;;;;;;7.03;4.77;;;18.30;99.90;;;;;;5074437;28;20437;-81
2022/10/23 12:38:10;;;;;;;7.23;5.17;;;18.40;99.90;;;;;;5073396;28;20473;-83
2022/10/23 12:40:38;;;;;;;6.63;4.40;;;18.40;99.90;;;;;;5062503;28;20458;-83
2022/10/23 12:43:23;;;;;;;6.10;4.77;;;18.30;99.90;;;;;;5063239;28;20519;-83
2022/10/23 12:45:51;;;;;;;5.37;4.33;;;18.40;99.90;;;;;;5061341;28;20500;-84
2022/10/23 12:48:20;;;;;;;19.37;4.40;;;18.20;99.90;;;;;;5053165;28;20447;-84
2022/10/23 12:50:50;;;;;;;5.47;4.80;;;18.30;99.90;;;;;;5060829;28;20461;-84
2022/10/23 12:53:19;;;;;;;8.50;4.73;;;18.20;99.90;;;;;;5062075;28;20997;-83
2022/10/23 12:55:51;;;;;;;9.60;4.70;;;18.20;99.90;;;;;;5065859;28;20453;-82
2022/10/23 12:58:22;;;;;;;6.33;4.30;;;18.20;99.90;;;;;;5074281;28;20448;-80
2022/10/23 13:00:54;;;;;;;10.20;4.13;;;18.20;99.90;;;;;;5074353;28;20469;-80